Time;durP1;ratioP1;P1;durP2;ratioP2;P2;SDS_P1;SDS_P2;PMS_P1;PMS_P2;Temp;Humidity;BMP_temperature;BMP_pressure;BME280_temperature;BME280_humidity;BME280_pressure;Samples;Min_cycle;Max_cycle;Signal;HPM_P1;HPM_P2
2023/02/17 00:01:48;;;;;;;20.45;16.60;;;10.20;99.90;;;;;;4989135;28;20034;-87
2023/02/17 00:04:15;;;;;;;19.48;15.38;;;10.20;99.90;;;;;;4972355;28;20026;-89
2023/02/17 00:06:48;;;;;;;20.88;15.27;;;10.20;99.90;;;;;;4952662;28;20056;-88
2023/02/17 00:09:19;;;;;;;22.05;16.35;;;10.20;99.90;;;;;;4987386;28;20031;-89
2023/02/17 00:11:51;;;;;;;22.23;16.45;;;10.20;99.90;;;;;;4970851;28;20459;-89
2023/02/17 00:14:18;;;;;;;19.25;15.63;;;10.30;99.90;;;;;;4970462;28;20039;-89
2023/02/17 00:16:51;;;;;;;20.70;15.50;;;10.30;99.90;;;;;;4985110;28;20027;-90
2023/02/17 00:19:24;;;;;;;18.85;14.43;;;10.30;99.90;;;;;;4971622;28;20078;-90
2023/02/17 00:22:01;;;;;;;18.42;15.05;;;10.30;99.90;;;;;;4969728;28;20122;-91
2023/02/17 00:24:30;;;;;;;17.45;13.32;;;10.30;99.90;;;;;;4972153;28;20034;-88
2023/02/17 00:27:02;;;;;;;19.33;15.52;;;10.30;99.90;;;;;;4986824;28;20031;-88
2023/02/17 00:29:40;;;;;;;19.25;14.13;;;10.30;99.90;;;;;;4970276;28;20027;-92
2023/02/17 00:32:12;;;;;;;17.90;14.70;;;10.30;99.90;;;;;;4954256;28;20067;-90
2023/02/17 00:34:46;;;;;;;19.65;14.77;;;10.30;99.90;;;;;;4988890;28;20031;-92
2023/02/17 00:37:13;;;;;;;18.75;14.15;;;10.30;99.90;;;;;;4971446;28;20038;-91
2023/02/17 00:39:40;;;;;;;15.27;12.40;;;10.30;99.90;;;;;;4955283;28;21152;-91
2023/02/17 00:42:09;;;;;;;16.70;12.32;;;10.30;99.90;;;;;;4973532;28;20179;-90
2023/02/17 00:44:50;;;;;;;14.05;11.15;;;10.30;99.90;;;;;;4973915;28;20042;-90
2023/02/17 00:47:20;;;;;;;15.40;11.65;;;10.30;99.90;;;;;;4972981;28;20042;-89
2023/02/17 00:50:12;;;;;;;14.13;11.40;;;10.30;99.90;;;;;;4974527;28;20030;-89
2023/02/17 00:52:39;;;;;;;15.95;12.18;;;10.30;99.90;;;;;;4968660;28;20056;-88
2023/02/17 00:55:19;;;;;;;15.32;11.27;;;10.30;99.90;;;;;;4987326;28;20356;-89
2023/02/17 00:57:47;;;;;;;14.25;10.48;;;10.30;99.90;;;;;;4974011;28;20094;-91
2023/02/17 01:00:19;;;;;;;13.43;10.68;;;10.30;99.90;;;;;;4973222;28;20030;-90
2023/02/17 01:02:46;;;;;;;12.95;10.35;;;10.30;99.90;;;;;;4974522;28;20035;-90
2023/02/17 01:05:12;;;;;;;15.02;11.85;;;10.30;99.90;;;;;;4974615;28;20117;-89
2023/02/17 01:07:41;;;;;;;12.88;10.52;;;10.30;99.90;;;;;;4944222;28;20041;-90
2023/02/17 01:10:09;;;;;;;13.57;10.32;;;10.30;99.90;;;;;;4975468;28;20033;-90
2023/02/17 01:12:38;;;;;;;17.45;13.75;;;10.30;99.90;;;;;;4975770;28;20038;-90
2023/02/17 01:15:11;;;;;;;15.43;12.18;;;10.30;99.90;;;;;;4971660;28;20066;-90
2023/02/17 01:17:43;;;;;;;15.65;13.38;;;10.30;99.90;;;;;;4956635;28;20422;-92
2023/02/17 01:20:16;;;;;;;18.08;13.40;;;10.30;99.90;;;;;;4973373;28;20035;-90
2023/02/17 01:22:51;;;;;;;17.15;12.27;;;10.30;99.90;;;;;;4957989;28;20154;-89
2023/02/17 01:25:24;;;;;;;17.48;14.00;;;10.30;99.90;;;;;;4979171;28;20034;-90
2023/02/17 01:27:54;;;;;;;17.92;14.23;;;10.30;99.90;;;;;;4995041;28;20088;-89
2023/02/17 01:30:34;;;;;;;19.10;14.30;;;10.30;99.90;;;;;;4973726;28;20026;-88
2023/02/17 01:33:01;;;;;;;19.33;14.32;;;10.30;99.90;;;;;;4973636;28;20042;-89
2023/02/17 01:35:32;;;;;;;18.77;15.30;;;10.30;99.90;;;;;;4994529;28;20473;-88
2023/02/17 01:38:01;;;;;;;18.42;15.32;;;10.30;99.90;;;;;;4977105;28;20038;-88
2023/02/17 01:40:31;;;;;;;19.25;14.82;;;10.40;99.90;;;;;;4977726;28;20641;-89
2023/02/17 01:43:00;;;;;;;17.75;14.45;;;10.30;99.90;;;;;;4994586;28;20031;-88
2023/02/17 01:45:46;;;;;;;16.77;13.40;;;10.30;99.90;;;;;;4991066;28;20041;-88
2023/02/17 01:48:18;;;;;;;20.73;15.00;;;10.40;99.90;;;;;;4977054;28;20026;-92
2023/02/17 01:50:55;;;;;;;19.67;14.45;;;10.40;99.90;;;;;;5005097;28;20031;-90
2023/02/17 01:53:32;;;;;;;20.02;15.15;;;10.40;99.90;;;;;;5004080;28;20046;-89
2023/02/17 01:56:03;;;;;;;20.40;13.77;;;10.40;99.90;;;;;;4960290;28;20078;-90
2023/02/17 01:58:43;;;;;;;22.80;16.35;;;10.40;99.90;;;;;;4989077;28;20071;-91
2023/02/17 02:01:15;;;;;;;21.40;15.55;;;10.40;99.90;;;;;;4988910;28;20034;-89
2023/02/17 02:03:44;;;;;;;22.55;16.05;;;10.40;99.90;;;;;;4990311;28;20023;-89
2023/02/17 02:06:18;;;;;;;21.40;15.10;;;10.40;99.90;;;;;;4974998;28;20821;-89
2023/02/17 02:09:10;;;;;;;21.00;15.75;;;10.40;99.90;;;;;;4976672;28;20029;-89
2023/02/17 02:11:37;;;;;;;22.73;16.75;;;10.40;99.90;;;;;;4976126;28;20486;-90
2023/02/17 02:14:10;;;;;;;21.85;15.73;;;10.40;99.90;;;;;;4974163;28;20035;-91
2023/02/17 02:16:58;;;;;;;24.45;16.25;;;10.40;99.90;;;;;;4978610;28;20110;-89
2023/02/17 02:20:03;;;;;;;23.17;17.17;;;10.40;99.90;;;;;;4992277;28;20038;-91
2023/02/17 02:23:13;;;;;;;29.38;18.15;;;10.40;99.90;;;;;;4995071;28;20038;-89
2023/02/17 02:26:33;;;;;;;24.00;16.27;;;10.30;99.90;;;;;;4985467;28;20022;-91
2023/02/17 02:29:44;;;;;;;27.13;18.15;;;10.40;99.90;;;;;;4983828;28;20030;-89
2023/02/17 02:32:57;;;;;;;26.85;17.23;;;10.40;99.90;;;;;;4995167;28;20046;-89
2023/02/17 02:35:44;;;;;;;28.30;17.95;;;10.40;99.90;;;;;;4997917;28;20037;-89
2023/02/17 02:38:52;;;;;;;25.23;17.45;;;10.30;99.90;;;;;;4991158;28;20371;-90
2023/02/17 02:41:26;;;;;;;27.52;17.67;;;10.30;99.90;;;;;;5013576;28;20050;-89
2023/02/17 02:43:53;;;;;;;28.52;19.60;;;10.30;99.90;;;;;;4976464;28;20034;-88
2023/02/17 02:46:21;;;;;;;28.92;19.83;;;10.30;99.90;;;;;;4961898;28;20038;-89
2023/02/17 02:48:53;;;;;;;27.00;17.73;;;10.30;99.90;;;;;;4976639;28;20022;-89
2023/02/17 02:51:51;;;;;;;27.20;18.63;;;10.30;99.90;;;;;;4977292;28;20092;-91
2023/02/17 02:54:34;;;;;;;26.00;17.73;;;10.30;99.90;;;;;;4976012;28;20055;-89
2023/02/17 02:57:39;;;;;;;27.30;18.58;;;10.30;99.90;;;;;;4993117;28;20030;-90
2023/02/17 03:00:39;;;;;;;28.10;17.75;;;10.30;99.90;;;;;;4977935;28;20543;-89
2023/02/17 03:03:35;;;;;;;28.58;18.50;;;10.30;99.90;;;;;;4976964;28;20026;-89
2023/02/17 03:06:09;;;;;;;28.30;18.40;;;10.30;99.90;;;;;;4993529;28;20039;-90
2023/02/17 03:09:04;;;;;;;25.15;16.85;;;10.30;99.90;;;;;;4971757;28;20045;-89
2023/02/17 03:11:45;;;;;;;20.50;14.18;;;10.30;99.90;;;;;;4986973;28;20042;-89
2023/02/17 03:14:17;;;;;;;22.90;15.52;;;10.30;99.90;;;;;;4976278;28;20066;-89
2023/02/17 03:16:45;;;;;;;23.23;15.73;;;10.30;99.90;;;;;;4994227;28;20030;-89
2023/02/17 03:19:15;;;;;;;23.08;15.70;;;10.30;99.90;;;;;;4972424;28;20237;-89
2023/02/17 03:22:01;;;;;;;22.33;15.57;;;10.30;99.90;;;;;;4988824;28;20045;-90
2023/02/17 03:24:33;;;;;;;22.17;16.20;;;10.30;99.90;;;;;;4960911;28;20121;-90
2023/02/17 03:27:06;;;;;;;21.67;15.88;;;10.30;99.90;;;;;;4974190;28;20026;-90
2023/02/17 03:29:32;;;;;;;23.35;16.48;;;10.20;99.90;;;;;;4972077;28;20035;-89
2023/02/17 03:32:01;;;;;;;22.27;15.88;;;10.30;99.90;;;;;;4976474;28;20138;-90
2023/02/17 03:34:28;;;;;;;21.92;14.75;;;10.30;99.90;;;;;;4973942;28;20065;-89
2023/02/17 03:36:56;;;;;;;20.52;13.23;;;10.30;99.90;;;;;;4958490;28;20042;-88
2023/02/17 03:39:23;;;;;;;20.40;13.70;;;10.30;99.90;;;;;;4958650;28;20327;-90
2023/02/17 03:41:54;;;;;;;20.75;14.57;;;10.30;99.90;;;;;;4952803;28;20146;-89
2023/02/17 03:44:20;;;;;;;20.17;13.02;;;10.30;99.90;;;;;;4990048;28;20034;-89
2023/02/17 03:46:50;;;;;;;18.90;13.18;;;10.20;99.90;;;;;;4973027;28;20027;-87
2023/02/17 03:49:16;;;;;;;18.67;13.35;;;10.20;99.90;;;;;;4941490;28;20498;-88
2023/02/17 03:52:05;;;;;;;19.40;13.88;;;10.20;99.90;;;;;;4975479;28;20042;-90
2023/02/17 03:54:38;;;;;;;18.17;11.88;;;10.30;99.90;;;;;;4969138;28;20043;-89
2023/02/17 03:57:05;;;;;;;19.70;13.43;;;10.20;99.90;;;;;;4956756;28;20065;-88
2023/02/17 03:59:38;;;;;;;19.05;13.50;;;10.20;99.90;;;;;;4971346;28;20039;-89
2023/02/17 04:02:07;;;;;;;18.83;13.35;;;10.20;99.90;;;;;;4960458;28;20018;-92
2023/02/17 04:04:35;;;;;;;18.88;13.38;;;10.20;99.90;;;;;;4986345;28;20030;-90
2023/02/17 04:07:01;;;;;;;19.05;13.18;;;10.20;99.90;;;;;;4977893;28;20027;-87
2023/02/17 04:09:33;;;;;;;17.15;12.07;;;10.30;99.90;;;;;;4974172;28;20030;-89
2023/02/17 04:12:00;;;;;;;18.30;12.57;;;10.30;99.90;;;;;;4970709;28;20094;-88
2023/02/17 04:14:30;;;;;;;15.90;12.30;;;10.30;99.90;;;;;;4970220;28;20487;-89
2023/02/17 04:16:58;;;;;;;15.90;11.52;;;10.30;99.90;;;;;;4969403;28;20039;-90
2023/02/17 04:19:25;;;;;;;17.75;12.88;;;10.30;99.90;;;;;;4959077;28;20034;-89
2023/02/17 04:21:56;;;;;;;16.90;11.50;;;10.30;99.90;;;;;;4969782;28;20031;-90
2023/02/17 04:24:27;;;;;;;16.88;12.40;;;10.30;99.90;;;;;;4952908;28;20090;-89
2023/02/17 04:26:59;;;;;;;18.50;11.93;;;10.30;99.90;;;;;;4953728;28;20081;-88
2023/02/17 04:29:29;;;;;;;19.15;13.27;;;10.30;99.90;;;;;;4967875;28;20410;-90
2023/02/17 04:31:58;;;;;;;18.70;13.65;;;10.30;99.90;;;;;;4978905;28;20042;-90
2023/02/17 04:34:30;;;;;;;17.77;12.98;;;10.30;99.90;;;;;;4972044;28;20031;-89
2023/02/17 04:37:06;;;;;;;19.45;14.25;;;10.30;99.90;;;;;;4972300;28;20058;-90
2023/02/17 04:39:32;;;;;;;18.83;13.75;;;10.30;99.90;;;;;;4971907;28;20023;-89
2023/02/17 04:42:04;;;;;;;21.38;15.65;;;10.30;99.90;;;;;;4952364;28;20086;-88
2023/02/17 04:44:31;;;;;;;24.50;16.13;;;10.30;99.90;;;;;;4977251;28;20027;-90
2023/02/17 04:46:59;;;;;;;23.20;16.70;;;10.30;99.90;;;;;;4953325;28;20063;-89
2023/02/17 04:49:27;;;;;;;25.10;19.52;;;10.30;99.90;;;;;;4973023;28;20018;-88
2023/02/17 04:51:58;;;;;;;29.17;19.83;;;10.30;99.90;;;;;;4968213;28;20069;-89
2023/02/17 04:54:42;;;;;;;24.90;18.27;;;10.30;99.90;;;;;;4969365;28;20026;-89
2023/02/17 04:57:08;;;;;;;27.45;19.55;;;10.40;99.90;;;;;;4951101;28;20057;-89
2023/02/17 04:59:56;;;;;;;26.25;19.05;;;10.30;99.90;;;;;;4973805;28;20027;-89
2023/02/17 05:02:30;;;;;;;23.58;17.40;;;10.30;99.90;;;;;;4977397;28;20030;-88
2023/02/17 05:04:57;;;;;;;;;;;10.30;99.90;;;;;;4975619;28;20050;-89
2023/02/17 05:07:25;;;;;;;26.95;18.45;;;10.30;99.90;;;;;;4977230;28;19918;-88
2023/02/17 05:09:58;;;;;;;29.88;21.42;;;10.30;99.90;;;;;;4959589;28;20134;-88
2023/02/17 05:12:26;;;;;;;30.27;18.92;;;10.30;99.90;;;;;;4973643;28;20039;-90
2023/02/17 05:14:55;;;;;;;28.33;19.58;;;10.30;99.90;;;;;;4968021;28;20113;-90
2023/02/17 05:17:27;;;;;;;29.45;18.73;;;10.20;99.90;;;;;;4973334;28;20055;-89
2023/02/17 05:19:59;;;;;;;27.45;19.20;;;10.20;99.90;;;;;;4979101;28;20042;-89
2023/02/17 05:22:26;;;;;;;27.50;18.90;;;10.10;99.90;;;;;;4958316;28;20066;-90
2023/02/17 05:24:53;;;;;;;28.10;18.92;;;10.00;99.90;;;;;;4973333;28;20035;-91
2023/02/17 05:27:24;;;;;;;28.83;20.90;;;10.00;99.90;;;;;;4976057;28;20155;-89
2023/02/17 05:29:53;;;;;;;25.60;17.75;;;10.00;99.90;;;;;;4976121;28;20383;-90
2023/02/17 05:32:23;;;;;;;32.40;21.80;;;9.90;99.90;;;;;;4974057;28;20055;-88
2023/02/17 05:34:54;;;;;;;27.25;19.25;;;9.90;99.90;;;;;;4956342;28;20051;-88
2023/02/17 05:37:23;;;;;;;27.63;19.85;;;9.90;99.90;;;;;;4974150;28;20031;-88
2023/02/17 05:40:00;;;;;;;28.40;20.15;;;9.90;99.90;;;;;;4974859;28;20467;-88
2023/02/17 05:42:30;;;;;;;31.98;20.55;;;9.90;99.90;;;;;;4987055;28;20051;-87
2023/02/17 05:45:02;;;;;;;28.38;18.55;;;10.00;99.90;;;;;;4968560;28;20024;-87
2023/02/17 05:47:37;;;;;;;29.90;21.38;;;10.00;99.90;;;;;;4976188;28;20093;-89
2023/02/17 05:50:16;;;;;;;29.05;20.00;;;10.00;99.90;;;;;;4975929;28;20027;-89
2023/02/17 05:52:46;;;;;;;31.08;20.88;;;10.00;99.90;;;;;;4973484;28;20039;-90
2023/02/17 05:55:22;;;;;;;31.85;22.25;;;10.00;99.90;;;;;;4989693;28;20042;-89
2023/02/17 05:58:06;;;;;;;23.23;16.92;;;10.00;99.90;;;;;;4989145;28;20412;-89
2023/02/17 06:00:34;;;;;;;28.40;19.95;;;10.00;99.90;;;;;;4977979;28;20027;-89
2023/02/17 06:03:32;;;;;;;31.30;21.95;;;10.00;99.90;;;;;;4980031;28;20054;-89
2023/02/17 06:06:10;;;;;;;29.27;21.58;;;10.00;99.90;;;;;;4983178;28;20031;-90
2023/02/17 06:08:43;;;;;;;26.77;19.73;;;10.00;99.90;;;;;;4973068;28;20073;-90
2023/02/17 06:11:20;;;;;;;;;;;10.00;99.90;;;;;;4973987;28;20463;-89
2023/02/17 06:13:58;;;;;;;26.25;19.45;;;10.00;99.90;;;;;;4975636;28;20017;-91
2023/02/17 06:16:39;;;;;;;24.92;18.27;;;10.00;99.90;;;;;;4982622;28;20027;-90
2023/02/17 06:19:14;;;;;;;26.83;18.92;;;10.00;99.90;;;;;;4978304;28;20046;-92
2023/02/17 06:21:42;;;;;;;24.35;18.10;;;10.00;99.90;;;;;;4971518;28;20026;-90
2023/02/17 06:24:14;;;;;;;27.25;19.83;;;10.00;99.90;;;;;;4957385;28;20070;-90
2023/02/17 06:26:53;;;;;;;31.38;21.17;;;10.00;99.90;;;;;;4971808;28;20390;-91
2023/02/17 06:29:32;;;;;;;29.80;21.23;;;10.00;99.90;;;;;;4972556;28;20109;-92
2023/02/17 06:32:04;;;;;;;28.02;19.08;;;10.00;99.90;;;;;;4972214;28;20038;-91
2023/02/17 06:35:25;;;;;;;;;;;;;;;;;;;;;
2023/02/17 06:37:57;;;;;;;26.83;18.67;;;10.00;99.90;;;;;;4969515;28;20030;-90
2023/02/17 06:40:31;;;;;;;27.13;19.48;;;10.10;99.90;;;;;;4971082;28;20090;-89
2023/02/17 06:43:00;;;;;;;25.15;18.77;;;10.10;99.90;;;;;;4972374;28;20499;-89
2023/02/17 06:45:33;;;;;;;26.25;18.25;;;10.10;99.90;;;;;;4973409;28;20027;-89
2023/02/17 06:48:11;;;;;;;26.42;18.10;;;10.20;99.90;;;;;;4971651;28;20035;-89
2023/02/17 06:50:44;;;;;;;23.40;16.73;;;10.20;99.90;;;;;;4968103;28;20039;-88
2023/02/17 06:53:16;;;;;;;25.83;18.05;;;10.20;99.90;;;;;;4970261;28;20075;-90
2023/02/17 06:56:01;;;;;;;31.30;20.05;;;10.30;99.90;;;;;;4973602;28;20031;-91
2023/02/17 06:58:38;;;;;;;25.65;18.08;;;10.30;99.90;;;;;;4977537;28;20058;-89
2023/02/17 07:01:41;;;;;;;27.33;18.80;;;10.30;99.90;;;;;;4972487;28;20040;-90
2023/02/17 07:04:50;;;;;;;25.98;17.58;;;10.30;99.90;;;;;;4958048;28;20117;-92
2023/02/17 07:07:34;;;;;;;23.73;17.48;;;10.30;99.90;;;;;;4972523;28;20042;-90
2023/02/17 07:10:13;;;;;;;26.88;18.48;;;10.30;99.90;;;;;;4988883;28;20042;-90
2023/02/17 07:12:49;;;;;;;24.52;18.15;;;10.40;99.90;;;;;;4988049;28;20035;-90
2023/02/17 07:15:38;;;;;;;24.95;17.42;;;10.40;99.90;;;;;;4972118;28;20026;-90
2023/02/17 07:18:29;;;;;;;27.23;18.80;;;10.40;99.90;;;;;;4969928;28;20499;-89
2023/02/17 07:28:50;;;;;;;25.38;18.27;;;10.50;99.90;;;;;;4998118;28;20046;-89
2023/02/17 07:31:27;;;;;;;25.92;18.33;;;10.50;99.90;;;;;;4980344;28;20038;-89
2023/02/17 07:34:52;;;;;;;25.52;18.02;;;10.50;99.90;;;;;;4990386;28;20050;-91
2023/02/17 07:37:40;;;;;;;22.45;16.08;;;10.50;99.90;;;;;;4928629;28;20047;-91
2023/02/17 07:40:18;;;;;;;24.50;17.13;;;10.50;99.90;;;;;;4922605;29;20043;-89
2023/02/17 07:43:25;;;;;;;22.20;16.30;;;10.50;99.90;;;;;;4929524;29;20421;-90
2023/02/17 07:46:07;;;;;;;24.42;17.00;;;10.60;99.90;;;;;;4857908;29;20092;-91
2023/02/17 07:48:59;;;;;;;25.17;17.88;;;10.60;99.90;;;;;;4908548;29;20040;-90
2023/02/17 07:51:44;;;;;;;28.88;20.63;;;10.60;99.90;;;;;;4916383;29;20064;-91
2023/02/17 07:54:22;;;;;;;27.98;18.58;;;10.60;99.90;;;;;;4915717;29;20039;-90
2023/02/17 07:57:27;;;;;;;27.23;18.63;;;10.60;99.90;;;;;;4912766;29;20042;-89
2023/02/17 08:00:10;;;;;;;27.65;19.83;;;10.60;99.90;;;;;;4930900;29;20056;-90
2023/02/17 08:02:54;;;;;;;26.40;19.40;;;10.70;99.90;;;;;;4995089;28;20481;-89
2023/02/17 08:05:51;;;;;;;;;;;;;;;;;;;;;
2023/02/17 08:14:42;;;;;;;26.17;18.98;;;10.80;99.90;;;;;;5013453;28;20049;-91
2023/02/17 08:17:18;;;;;;;23.73;17.88;;;10.80;99.90;;;;;;4992605;28;20034;-89
2023/02/17 08:19:55;;;;;;;24.63;18.38;;;10.80;99.90;;;;;;5011488;28;20436;-89
2023/02/17 08:22:37;;;;;;;22.50;16.33;;;10.80;99.90;;;;;;5008661;28;20443;-89
2023/02/17 08:25:14;;;;;;;22.08;16.23;;;10.90;99.90;;;;;;4994293;28;20041;-89
2023/02/17 08:27:54;;;;;;;22.30;16.83;;;10.90;99.90;;;;;;4994052;28;20030;-89
2023/02/17 08:30:27;;;;;;;22.67;16.35;;;10.90;99.90;;;;;;5015714;28;20042;-89
2023/02/17 08:33:33;;;;;;;22.58;16.13;;;10.90;99.90;;;;;;4992499;28;20054;-88
2023/02/17 08:36:15;;;;;;;21.42;15.73;;;11.00;99.90;;;;;;4978569;28;20114;-88
2023/02/17 08:38:51;;;;;;;21.50;15.75;;;11.00;99.90;;;;;;4968683;28;20042;-89
2023/02/17 08:41:36;;;;;;;21.70;15.02;;;11.10;99.90;;;;;;5007299;28;20105;-90
2023/02/17 08:44:17;;;;;;;20.42;14.07;;;11.00;99.90;;;;;;4980659;28;20053;-92
2023/02/17 08:47:01;;;;;;;17.77;13.20;;;11.10;99.90;;;;;;4983538;28;20030;-90
2023/02/17 08:49:32;;;;;;;18.10;13.65;;;11.10;99.90;;;;;;4981442;28;20483;-89
2023/02/17 08:52:05;;;;;;;17.67;12.57;;;11.20;99.90;;;;;;4969911;28;20049;-89
2023/02/17 08:54:46;;;;;;;16.30;11.82;;;11.20;99.90;;;;;;4988036;28;20491;-88
2023/02/17 08:57:25;;;;;;;17.23;11.93;;;11.30;99.90;;;;;;4980810;28;20049;-89
2023/02/17 08:59:57;;;;;;;15.50;12.00;;;11.30;99.90;;;;;;4968015;28;20482;-90
2023/02/17 09:02:29;;;;;;;14.73;10.50;;;11.30;99.90;;;;;;4995709;28;20423;-90
2023/02/17 09:05:10;;;;;;;16.83;11.85;;;11.30;99.90;;;;;;4979503;28;20034;-89
2023/02/17 09:07:53;;;;;;;15.35;11.70;;;11.40;99.90;;;;;;5000893;28;20498;-90
2023/02/17 09:10:24;;;;;;;15.00;10.85;;;11.40;99.90;;;;;;4984766;28;20512;-89
2023/02/17 09:12:55;;;;;;;12.27;10.10;;;11.40;99.90;;;;;;4994808;28;20046;-89
2023/02/17 09:15:22;;;;;;;14.05;9.98;;;11.40;99.90;;;;;;4982411;28;20104;-88
2023/02/17 09:18:03;;;;;;;13.20;9.60;;;11.50;99.90;;;;;;5005161;28;20125;-90
2023/02/17 09:20:45;;;;;;;11.90;9.55;;;11.40;99.90;;;;;;5005985;28;20113;-90
2023/02/17 09:26:34;;;;;;;14.15;10.07;;;11.50;99.90;;;;;;4999280;28;20045;-89
2023/02/17 09:29:43;;;;;;;12.68;9.68;;;11.50;99.90;;;;;;4985889;28;20045;-89
2023/02/17 09:32:08;;;;;;;11.10;8.45;;;11.50;99.90;;;;;;5002907;28;20064;-88
2023/02/17 09:34:49;;;;;;;11.45;8.25;;;11.50;99.90;;;;;;4994072;28;20084;-91
2023/02/17 09:37:23;;;;;;;11.35;8.43;;;11.60;99.90;;;;;;4997721;28;20064;-89
2023/02/17 09:40:06;;;;;;;10.60;8.43;;;11.60;99.90;;;;;;4997035;28;20056;-88
2023/02/17 09:42:51;;;;;;;11.88;7.85;;;11.60;99.90;;;;;;5015986;28;20088;-90
2023/02/17 09:46:12;;;;;;;9.32;7.03;;;11.60;99.90;;;;;;4995733;28;20042;-89
2023/02/17 09:48:52;;;;;;;9.88;7.22;;;11.70;99.90;;;;;;4937685;29;20043;-90
2023/02/17 09:52:03;;;;;;;10.07;7.50;;;11.70;99.90;;;;;;4955557;28;20062;-90
2023/02/17 09:55:09;;;;;;;12.15;7.80;;;11.70;99.90;;;;;;4993475;28;20049;-89
2023/02/17 09:58:24;;;;;;;;;;;;;;;;;;;;;
2023/02/17 10:01:13;;;;;;;9.88;7.53;;;11.70;99.90;;;;;;4913571;29;20040;-89
2023/02/17 10:03:50;;;;;;;9.35;6.97;;;11.70;99.90;;;;;;4911909;29;20096;-88
2023/02/17 10:07:01;;;;;;;8.18;6.07;;;11.70;99.90;;;;;;4896134;29;20100;-88
2023/02/17 10:09:55;;;;;;;8.02;5.95;;;11.70;99.90;;;;;;4878347;29;20165;-88
2023/02/17 10:12:38;;;;;;;10.27;6.88;;;11.70;99.90;;;;;;4885091;29;20040;-89
2023/02/17 10:19:22;;;;;;;10.50;5.93;;;11.70;99.90;;;;;;4882007;29;20501;-90
2023/02/17 10:22:33;;;;;;;8.65;6.53;;;11.80;99.90;;;;;;4847293;29;20161;-91
2023/02/17 10:25:36;;;;;;;8.15;5.90;;;11.70;99.90;;;;;;4832327;29;20106;-89
2023/02/17 10:29:00;;;;;;;8.27;5.80;;;11.70;99.90;;;;;;4832923;29;20044;-91
2023/02/17 10:35:59;;;;;;;7.88;6.13;;;11.80;99.90;;;;;;4775763;30;20402;-89
2023/02/17 10:39:28;;;;;;;8.13;5.78;;;11.70;99.90;;;;;;4830470;29;20042;-88
2023/02/17 10:42:33;;;;;;;8.38;5.85;;;11.70;99.90;;;;;;4775251;29;20039;-91
2023/02/17 10:45:30;;;;;;;7.35;5.28;;;11.70;99.90;;;;;;4784919;29;20055;-92
2023/02/17 10:49:04;;;;;;;11.23;6.70;;;11.70;99.90;;;;;;4781762;29;20071;-89
2023/02/17 10:51:43;;;;;;;8.15;5.57;;;11.70;99.90;;;;;;4797858;29;20118;-90
2023/02/17 10:54:58;;;;;;;7.65;5.47;;;11.70;99.90;;;;;;4790006;29;20416;-92
2023/02/17 10:58:04;;;;;;;7.30;5.28;;;11.70;99.90;;;;;;4794271;29;20046;-90
2023/02/17 11:00:51;;;;;;;;;;;11.70;99.90;;;;;;4832590;29;20050;-89
2023/02/17 11:03:37;;;;;;;10.27;6.00;;;11.70;99.90;;;;;;4837244;29;19919;-89
2023/02/17 11:06:38;;;;;;;8.50;6.30;;;11.70;99.90;;;;;;4820593;29;20098;-90
2023/02/17 11:12:40;;;;;;;9.57;6.50;;;11.70;99.90;;;;;;4903302;29;20122;-88
2023/02/17 11:15:25;;;;;;;8.68;5.53;;;11.70;99.90;;;;;;4926524;29;20374;-86
2023/02/17 11:18:38;;;;;;;8.77;6.43;;;11.80;99.90;;;;;;4932682;28;20050;-90
2023/02/17 11:21:27;;;;;;;9.90;6.53;;;11.70;99.90;;;;;;4981149;28;20034;-89
2023/02/17 11:24:43;;;;;;;9.77;6.68;;;11.80;99.90;;;;;;4980481;28;20104;-87
2023/02/17 11:27:41;;;;;;;8.25;6.40;;;11.80;99.90;;;;;;4989039;28;20041;-91
2023/02/17 11:30:17;;;;;;;10.13;5.93;;;11.80;99.90;;;;;;4998517;28;20042;-89
2023/02/17 11:33:49;;;;;;;10.10;6.55;;;11.90;99.90;;;;;;4976583;28;20057;-88
2023/02/17 11:36:57;;;;;;;9.05;6.80;;;12.00;99.90;;;;;;4918830;29;20551;-89
2023/02/17 11:39:41;;;;;;;11.38;6.75;;;12.00;99.90;;;;;;5000520;28;20045;-88
2023/02/17 11:43:17;;;;;;;9.05;6.47;;;12.00;99.90;;;;;;5000184;28;20030;-88
2023/02/17 11:46:37;;;;;;;10.02;7.13;;;12.00;99.90;;;;;;4932798;28;20035;-87
2023/02/17 11:49:41;;;;;;;11.57;7.07;;;11.90;99.90;;;;;;4933471;28;20122;-89
2023/02/17 11:52:55;;;;;;;11.30;7.35;;;11.90;99.90;;;;;;4949241;28;20427;-90
2023/02/17 11:59:40;;;;;;;10.65;7.68;;;11.90;99.90;;;;;;4923314;29;20063;-89
2023/02/17 12:03:01;;;;;;;;;;;;;;;;;;;;;
2023/02/17 12:06:03;;;;;;;11.35;6.85;;;11.90;99.90;;;;;;4964815;28;20045;-88
2023/02/17 12:09:03;;;;;;;8.75;6.05;;;11.90;99.90;;;;;;4966803;28;20023;-88
2023/02/17 12:12:15;;;;;;;9.30;6.50;;;11.90;99.90;;;;;;4959600;28;20043;-88
2023/02/17 12:15:29;;;;;;;10.68;6.25;;;11.90;99.90;;;;;;4983295;28;20116;-88
2023/02/17 12:18:41;;;;;;;;;;;;;;;;;;;;;
2023/02/17 12:21:50;;;;;;;11.23;7.22;;;11.90;99.90;;;;;;5002381;28;19914;-89
2023/02/17 12:25:17;;;;;;;10.93;7.07;;;11.90;99.90;;;;;;5003195;28;20037;-89
2023/02/17 12:31:25;;;;;;;11.68;8.07;;;11.90;99.90;;;;;;5005987;28;20125;-89
2023/02/17 12:34:42;;;;;;;11.38;8.00;;;11.90;99.90;;;;;;5009510;28;20549;-88
2023/02/17 12:37:23;;;;;;;11.98;8.52;;;11.80;99.90;;;;;;4906356;29;20108;-88
2023/02/17 12:40:42;;;;;;;13.32;9.07;;;11.90;99.90;;;;;;5000503;28;20501;-90
2023/02/17 12:43:39;;;;;;;12.90;8.82;;;11.90;99.90;;;;;;4925288;29;20047;-89
2023/02/17 12:50:04;;;;;;;13.05;9.00;;;11.90;99.90;;;;;;4890563;28;20065;-88
2023/02/17 12:52:58;;;;;;;;;;;;;;;;;;;;;
2023/02/17 12:55:47;;;;;;;12.02;8.63;;;11.90;99.90;;;;;;4997998;28;20042;-92
2023/02/17 12:58:46;;;;;;;15.13;8.40;;;11.90;99.90;;;;;;4985720;28;20488;-89
2023/02/17 13:01:21;;;;;;;13.85;7.90;;;11.90;99.90;;;;;;4930428;28;20077;-90
2023/02/17 13:04:18;;;;;;;13.18;7.50;;;11.90;99.90;;;;;;4982168;28;20084;-88
2023/02/17 13:06:57;;;;;;;12.63;7.10;;;11.80;99.90;;;;;;4974783;28;20103;-85
2023/02/17 13:09:58;;;;;;;9.68;6.60;;;11.80;99.90;;;;;;5001157;28;20033;-88
2023/02/17 13:12:42;;;;;;;10.43;6.50;;;11.80;99.90;;;;;;5001872;28;20494;-88
2023/02/17 13:15:59;;;;;;;10.02;6.68;;;11.80;99.90;;;;;;4973625;28;20049;-89
2023/02/17 13:19:03;;;;;;;11.55;7.57;;;11.80;99.90;;;;;;4884350;29;20112;-89
2023/02/17 13:21:39;;;;;;;12.32;8.10;;;11.60;99.90;;;;;;4898666;29;20048;-88
2023/02/17 13:24:56;;;;;;;13.15;7.90;;;11.50;99.90;;;;;;4885422;29;20060;-90
2023/02/17 13:27:42;;;;;;;11.75;6.38;;;11.40;99.90;;;;;;4879974;29;20135;-88
2023/02/17 13:30:43;;;;;;;13.68;7.13;;;11.20;99.90;;;;;;4885046;29;20128;-88
2023/02/17 13:33:32;;;;;;;14.80;7.10;;;11.00;99.90;;;;;;4892792;29;20060;-90
2023/02/17 13:36:13;;;;;;;13.32;7.15;;;10.90;99.90;;;;;;4873401;29;20046;-88
2023/02/17 13:39:26;;;;;;;15.55;6.78;;;10.90;99.90;;;;;;4873502;29;20048;-88
2023/02/17 13:42:00;;;;;;;14.13;6.18;;;10.80;99.90;;;;;;4864189;29;20037;-90
2023/02/17 13:44:45;;;;;;;13.18;5.70;;;10.80;99.90;;;;;;4878368;29;20096;-90
2023/02/17 13:48:29;;;;;;;11.40;5.30;;;10.90;99.90;;;;;;4864087;29;20045;-88
2023/02/17 13:51:02;;;;;;;15.23;5.78;;;11.00;99.90;;;;;;4861905;29;20041;-89
2023/02/17 13:53:48;;;;;;;11.45;5.60;;;11.10;99.90;;;;;;4912667;28;20559;-90
2023/02/17 13:57:21;;;;;;;11.27;4.90;;;11.10;99.90;;;;;;4973900;28;20031;-89
2023/02/17 13:59:47;;;;;;;13.20;5.15;;;11.30;99.90;;;;;;4925872;29;20051;-88
2023/02/17 14:02:21;;;;;;;13.50;5.38;;;11.40;99.90;;;;;;4926392;28;20588;-90
2023/02/17 14:05:46;;;;;;;12.93;5.47;;;11.30;99.90;;;;;;4974243;28;20045;-88
2023/02/17 14:08:53;;;;;;;12.27;5.25;;;11.30;99.90;;;;;;4976664;28;20505;-88
2023/02/17 14:11:27;;;;;;;11.38;5.78;;;11.40;99.90;;;;;;4958708;28;20089;-88
2023/02/17 14:14:15;;;;;;;13.75;6.00;;;11.40;99.90;;;;;;4956363;28;20034;-89
2023/02/17 14:17:34;;;;;;;10.88;5.50;;;11.40;99.90;;;;;;4952535;28;20054;-89
2023/02/17 14:20:11;;;;;;;10.68;5.00;;;11.40;99.90;;;;;;4882513;29;20051;-88
2023/02/17 14:22:43;;;;;;;12.40;5.30;;;11.40;99.90;;;;;;4905247;29;20072;-87
2023/02/17 14:25:30;;;;;;;12.85;5.20;;;11.50;99.90;;;;;;4898730;29;20779;-87
2023/02/17 14:27:57;;;;;;;10.23;4.85;;;11.50;99.90;;;;;;4889245;29;20076;-88
2023/02/17 14:30:49;;;;;;;12.50;4.78;;;11.60;99.90;;;;;;4902184;29;20075;-89
2023/02/17 14:33:25;;;;;;;15.43;5.25;;;11.60;99.90;;;;;;4911726;29;20099;-88
2023/02/17 14:36:05;;;;;;;10.57;4.50;;;11.60;99.90;;;;;;4896781;29;20315;-90
2023/02/17 14:38:42;;;;;;;9.48;4.55;;;11.60;99.90;;;;;;4876976;29;20062;-88
2023/02/17 14:41:14;;;;;;;11.52;4.45;;;11.60;99.90;;;;;;4904141;29;20044;-90